Time;durP1;ratioP1;P1;durP2;ratioP2;P2;SDS_P1;SDS_P2;PMS_P1;PMS_P2;Temp;Humidity;BMP_temperature;BMP_pressure;BME280_temperature;BME280_humidity;BME280_pressure;Samples;Min_cycle;Max_cycle;Signal;HPM_P1;HPM_P2
2022/09/16 00:00:19;;;;;;;2.55;1.13;;;16.40;99.90;;;;;;4974781;28;20031;-61
2022/09/16 00:02:45;;;;;;;1.73;0.60;;;16.40;99.90;;;;;;4992429;28;20818;-62
2022/09/16 00:05:11;;;;;;;7.78;0.88;;;16.40;99.90;;;;;;4992535;28;20494;-61
2022/09/16 00:07:37;;;;;;;1.45;0.88;;;16.40;99.90;;;;;;4992554;28;20120;-62
2022/09/16 00:10:04;;;;;;;1.10;0.75;;;16.40;99.90;;;;;;4992121;28;20034;-61
2022/09/16 00:12:30;;;;;;;0.63;0.52;;;16.30;99.90;;;;;;4974888;28;20034;-62
2022/09/16 00:14:56;;;;;;;1.55;0.93;;;16.30;99.90;;;;;;4974711;28;20442;-62
2022/09/16 00:17:22;;;;;;;1.42;0.93;;;16.30;99.90;;;;;;4992241;28;20026;-61
2022/09/16 00:19:49;;;;;;;8.10;1.20;;;16.30;99.90;;;;;;4991978;28;20066;-62
2022/09/16 00:22:15;;;;;;;3.50;1.83;;;16.20;99.90;;;;;;4991931;28;20089;-61
2022/09/16 00:24:41;;;;;;;1.13;0.57;;;16.20;99.90;;;;;;4992214;28;20453;-62
2022/09/16 00:27:07;;;;;;;1.58;0.63;;;16.20;99.90;;;;;;4990836;28;20042;-62
2022/09/16 00:29:33;;;;;;;1.00;0.70;;;16.20;99.90;;;;;;4974525;28;20038;-62
2022/09/16 00:31:59;;;;;;;1.55;0.80;;;16.10;99.90;;;;;;4974024;28;20117;-62
2022/09/16 00:34:25;;;;;;;3.17;0.73;;;16.20;99.90;;;;;;4990769;28;20112;-61
2022/09/16 00:36:50;;;;;;;1.02;0.60;;;16.20;99.90;;;;;;4991913;28;20037;-61
2022/09/16 00:39:16;;;;;;;1.60;0.70;;;16.20;99.90;;;;;;4991660;28;20080;-62
2022/09/16 00:41:43;;;;;;;1.27;0.65;;;16.20;99.90;;;;;;4974605;28;20034;-61
2022/09/16 00:45:27;;;;;;;4.57;0.88;;;16.30;99.90;;;;;;4991590;28;20030;-62
2022/09/16 00:48:04;;;;;;;6.18;0.85;;;16.30;99.90;;;;;;4950671;29;20582;-61
2022/09/16 00:50:47;;;;;;;1.45;0.70;;;16.30;99.90;;;;;;4950227;29;20041;-61
2022/09/16 00:53:32;;;;;;;2.22;0.85;;;16.40;99.90;;;;;;4950256;28;20031;-61
2022/09/16 00:56:01;;;;;;;1.48;0.60;;;16.30;99.90;;;;;;4950480;28;20042;-61
2022/09/16 00:58:39;;;;;;;2.35;0.60;;;16.30;99.90;;;;;;4950302;28;20050;-61
2022/09/16 01:01:05;;;;;;;1.60;0.80;;;16.30;99.90;;;;;;4950051;28;20066;-63
2022/09/16 01:03:36;;;;;;;0.70;0.55;;;16.30;99.90;;;;;;4949913;29;20075;-61
2022/09/16 01:06:03;;;;;;;1.08;0.63;;;16.30;99.90;;;;;;4943499;28;20031;-61
2022/09/16 01:08:29;;;;;;;3.97;1.17;;;16.40;99.90;;;;;;4939788;29;20039;-61
2022/09/16 01:10:55;;;;;;;9.43;0.75;;;16.40;99.90;;;;;;4946786;29;20031;-61
2022/09/16 01:13:21;;;;;;;1.58;0.77;;;16.30;99.90;;;;;;4949825;29;20046;-61
2022/09/16 01:16:05;;;;;;;2.63;1.00;;;16.30;99.90;;;;;;4924666;29;20042;-61
2022/09/16 01:19:12;;;;;;;2.45;1.55;;;16.20;99.90;;;;;;4934107;28;20039;-61
2022/09/16 01:22:01;;;;;;;2.60;1.38;;;16.20;99.90;;;;;;4970522;28;20103;-61
2022/09/16 01:24:34;;;;;;;1.55;0.60;;;16.20;99.90;;;;;;4981627;28;20035;-61
2022/09/16 01:27:53;;;;;;;3.33;0.95;;;16.20;99.90;;;;;;4991872;28;20034;-61
2022/09/16 01:31:07;;;;;;;2.08;0.60;;;16.10;99.90;;;;;;4954816;28;20049;-61
2022/09/16 01:34:05;;;;;;;1.73;0.93;;;16.20;99.90;;;;;;4994666;28;20030;-61
2022/09/16 01:36:44;;;;;;;1.80;0.85;;;16.20;99.90;;;;;;4992996;28;20034;-61
2022/09/16 01:39:47;;;;;;;1.20;0.77;;;16.20;99.90;;;;;;4994604;28;20034;-61
2022/09/16 01:42:32;;;;;;;1.15;0.60;;;16.20;99.90;;;;;;5010359;28;20030;-61
2022/09/16 01:45:38;;;;;;;1.25;0.75;;;16.10;99.90;;;;;;4996946;28;20076;-60
2022/09/16 01:48:30;;;;;;;2.55;0.88;;;16.20;99.90;;;;;;4958629;28;20073;-61
2022/09/16 01:51:33;;;;;;;1.25;0.70;;;16.10;99.90;;;;;;5014193;28;20474;-61
2022/09/16 01:54:19;;;;;;;1.80;1.15;;;16.10;99.90;;;;;;4997360;28;20474;-61
2022/09/16 01:56:51;;;;;;;3.08;0.70;;;16.10;99.90;;;;;;4998231;28;20034;-61
2022/09/16 01:59:24;;;;;;;2.60;0.93;;;16.10;99.90;;;;;;4996849;28;20359;-61
2022/09/16 02:02:07;;;;;;;9.05;1.13;;;16.00;99.90;;;;;;4997308;28;20064;-61
2022/09/16 02:04:40;;;;;;;2.45;1.38;;;16.00;99.90;;;;;;5014386;28;20034;-62
2022/09/16 02:07:09;;;;;;;2.88;0.90;;;16.00;99.90;;;;;;4996921;28;20038;-61
2022/09/16 02:09:45;;;;;;;1.92;0.90;;;16.10;99.90;;;;;;4996337;28;20029;-61
2022/09/16 02:12:22;;;;;;;2.17;0.90;;;16.10;99.90;;;;;;4997104;28;20144;-61
2022/09/16 02:14:49;;;;;;;3.75;1.02;;;15.90;99.90;;;;;;4989029;28;20338;-61
2022/09/16 02:17:21;;;;;;;1.52;1.05;;;16.00;99.90;;;;;;4941829;28;20041;-61
2022/09/16 02:20:01;;;;;;;1.85;0.88;;;16.00;99.90;;;;;;4957974;28;20122;-61
2022/09/16 02:22:37;;;;;;;1.30;0.70;;;16.00;99.90;;;;;;4957954;28;20069;-62
2022/09/16 02:25:07;;;;;;;1.80;1.05;;;15.90;99.90;;;;;;4942818;28;20027;-61
2022/09/16 02:27:37;;;;;;;1.42;0.80;;;16.00;99.90;;;;;;4957813;28;20034;-61
2022/09/16 02:30:13;;;;;;;1.55;0.77;;;16.00;99.90;;;;;;4957585;28;20026;-62
2022/09/16 02:32:48;;;;;;;4.28;1.13;;;16.00;99.90;;;;;;4957668;28;20133;-61
2022/09/16 02:35:19;;;;;;;3.05;0.68;;;15.90;99.90;;;;;;4957914;28;20039;-61
2022/09/16 02:37:51;;;;;;;0.97;0.63;;;16.00;99.90;;;;;;4956405;28;20617;-62
2022/09/16 02:40:32;;;;;;;1.50;0.85;;;15.90;99.90;;;;;;4974113;28;20031;-61
2022/09/16 02:42:58;;;;;;;2.60;0.83;;;15.80;99.90;;;;;;4957648;28;20077;-61
2022/09/16 02:45:52;;;;;;;3.13;0.77;;;15.80;99.90;;;;;;4957452;28;20276;-61
2022/09/16 02:48:47;;;;;;;0.98;0.60;;;15.80;99.90;;;;;;4959511;28;20035;-60
2022/09/16 02:51:51;;;;;;;3.80;0.90;;;15.90;99.90;;;;;;4957897;28;20423;-60
2022/09/16 02:54:41;;;;;;;2.10;0.75;;;15.90;99.90;;;;;;4939882;28;20043;-60
2022/09/16 02:59:41;;;;;;;1.35;0.77;;;16.00;99.90;;;;;;4984805;28;20050;-60
2022/09/16 03:02:07;;;;;;;1.67;0.98;;;15.90;99.90;;;;;;4989017;28;20034;-60
2022/09/16 03:04:35;;;;;;;0.68;0.47;;;15.90;99.90;;;;;;4989055;28;20039;-60
2022/09/16 03:07:04;;;;;;;1.48;0.75;;;15.90;99.90;;;;;;4974247;28;20035;-60
2022/09/16 03:09:31;;;;;;;1.08;0.68;;;15.80;99.90;;;;;;4973507;28;20037;-60
2022/09/16 03:12:29;;;;;;;2.13;0.77;;;15.90;99.90;;;;;;4974184;28;20034;-60
2022/09/16 03:15:27;;;;;;;1.15;0.80;;;15.90;99.90;;;;;;4973983;28;20038;-60
2022/09/16 03:18:51;;;;;;;1.48;0.95;;;15.90;99.90;;;;;;4987659;28;20033;-60
2022/09/16 03:21:30;;;;;;;4.55;0.90;;;16.00;99.90;;;;;;4974169;28;20066;-60
2022/09/16 03:24:26;;;;;;;1.95;0.93;;;16.00;99.90;;;;;;4973087;28;20046;-60
2022/09/16 03:27:06;;;;;;;1.65;0.95;;;16.00;99.90;;;;;;4987732;28;20027;-61
2022/09/16 03:29:41;;;;;;;2.22;1.17;;;16.00;99.90;;;;;;4987258;28;20035;-61
2022/09/16 03:32:33;;;;;;;3.65;0.88;;;16.00;99.90;;;;;;4987820;28;20043;-61
2022/09/16 03:35:10;;;;;;;1.50;0.80;;;16.00;99.90;;;;;;4986732;28;20027;-61
2022/09/16 03:37:38;;;;;;;1.85;0.95;;;16.10;99.90;;;;;;4987724;28;20031;-61
2022/09/16 03:40:14;;;;;;;7.78;1.08;;;16.10;99.90;;;;;;4987797;28;20395;-61
2022/09/16 03:42:42;;;;;;;2.28;0.77;;;16.10;99.90;;;;;;4987845;28;20093;-62
2022/09/16 03:45:15;;;;;;;1.40;0.68;;;16.10;99.90;;;;;;4988187;28;20360;-60
2022/09/16 03:47:43;;;;;;;1.88;0.75;;;16.10;99.90;;;;;;4973500;28;20035;-59
2022/09/16 03:50:09;;;;;;;6.05;1.02;;;16.10;99.90;;;;;;4971044;28;20046;-59
2022/09/16 03:52:35;;;;;;;4.70;1.20;;;16.10;99.90;;;;;;4988010;28;20090;-61
2022/09/16 03:55:00;;;;;;;3.00;1.00;;;16.10;99.90;;;;;;4973098;28;20035;-61
2022/09/16 03:57:27;;;;;;;3.10;1.25;;;16.10;99.90;;;;;;4971840;28;20034;-61
2022/09/16 03:59:52;;;;;;;5.85;0.75;;;16.00;99.90;;;;;;4972806;28;20030;-61
2022/09/16 04:02:18;;;;;;;4.78;0.95;;;16.00;99.90;;;;;;4972781;28;20037;-61
2022/09/16 04:04:44;;;;;;;1.77;0.82;;;16.00;99.90;;;;;;4987816;28;20134;-60
2022/09/16 04:07:10;;;;;;;1.92;1.23;;;15.90;99.90;;;;;;4978337;28;20105;-61
2022/09/16 04:09:36;;;;;;;5.80;0.88;;;15.90;99.90;;;;;;4988078;28;20423;-60
2022/09/16 04:12:02;;;;;;;4.30;1.10;;;15.90;99.90;;;;;;4989265;28;20102;-61
2022/09/16 04:14:28;;;;;;;0.68;0.47;;;15.90;99.90;;;;;;4993676;28;20118;-61
2022/09/16 04:16:54;;;;;;;3.17;0.75;;;15.90;99.90;;;;;;4992129;28;20158;-60
2022/09/16 04:19:20;;;;;;;2.05;0.70;;;15.80;99.90;;;;;;4991656;28;20080;-60
2022/09/16 04:21:46;;;;;;;4.47;0.95;;;15.80;99.90;;;;;;4992003;28;20513;-60
2022/09/16 04:24:12;;;;;;;0.73;0.57;;;15.80;99.90;;;;;;4991609;28;20089;-60
2022/09/16 04:26:37;;;;;;;0.82;0.63;;;15.80;99.90;;;;;;5007018;28;20634;-60
2022/09/16 04:29:03;;;;;;;4.93;1.02;;;15.80;99.90;;;;;;4991391;28;20034;-60
2022/09/16 04:31:29;;;;;;;1.00;0.88;;;15.80;99.90;;;;;;4991892;28;20498;-60
2022/09/16 04:33:54;;;;;;;61.85;26.90;;;15.70;99.90;;;;;;4991537;28;20550;-60
2022/09/16 04:36:20;;;;;;;2.28;1.63;;;15.70;99.90;;;;;;4991522;28;20052;-60
2022/09/16 04:38:47;;;;;;;1.38;0.85;;;15.70;99.90;;;;;;4991090;28;20030;-61
2022/09/16 04:41:17;;;;;;;1.58;1.25;;;15.70;99.90;;;;;;4990465;28;20364;-62
2022/09/16 04:43:44;;;;;;;5.80;1.10;;;15.70;99.90;;;;;;4991311;28;20022;-62
2022/09/16 04:46:10;;;;;;;1.90;0.88;;;15.60;99.90;;;;;;4991919;28;20113;-62
2022/09/16 04:48:37;;;;;;;2.95;1.27;;;15.60;99.90;;;;;;4991211;28;20034;-61
2022/09/16 04:51:11;;;;;;;0.82;0.55;;;15.60;99.90;;;;;;4991435;28;20410;-61
2022/09/16 04:53:39;;;;;;;3.25;0.80;;;15.60;99.90;;;;;;4990980;28;20033;-62
2022/09/16 04:56:17;;;;;;;0.68;0.35;;;15.60;99.90;;;;;;4991380;28;20109;-62
2022/09/16 04:58:46;;;;;;;8.95;1.13;;;15.60;99.90;;;;;;4990574;28;20046;-62
2022/09/16 05:01:18;;;;;;;0.50;0.50;;;15.60;99.90;;;;;;4990807;28;20038;-61
2022/09/16 05:03:48;;;;;;;0.93;0.85;;;15.60;99.90;;;;;;4990917;28;20482;-62
2022/09/16 05:06:24;;;;;;;1.50;0.60;;;15.60;99.90;;;;;;4991354;28;20049;-62
2022/09/16 05:08:52;;;;;;;5.60;1.73;;;15.60;99.90;;;;;;4989290;28;20030;-62
2022/09/16 05:11:23;;;;;;;9.75;1.75;;;15.60;99.90;;;;;;4991254;28;20494;-61
2022/09/16 05:13:49;;;;;;;2.50;1.02;;;15.40;99.90;;;;;;4990951;28;20034;-62
2022/09/16 05:16:18;;;;;;;4.18;1.52;;;15.30;99.90;;;;;;4991004;28;20060;-65
2022/09/16 05:18:46;;;;;;;7.70;1.70;;;15.40;99.90;;;;;;4988013;28;20070;-65
2022/09/16 05:21:15;;;;;;;2.05;1.50;;;15.40;99.90;;;;;;5004312;28;20101;-66
2022/09/16 05:23:41;;;;;;;1.77;1.23;;;15.40;99.90;;;;;;5005316;28;20359;-66
2022/09/16 05:26:14;;;;;;;2.15;1.20;;;15.40;99.90;;;;;;4990721;28;20145;-64
2022/09/16 05:28:40;;;;;;;1.40;0.80;;;15.30;99.90;;;;;;5005490;28;20437;-74
2022/09/16 05:31:24;;;;;;;1.85;1.00;;;15.20;99.90;;;;;;4990117;28;20034;-72
2022/09/16 05:34:16;;;;;;;0.68;0.57;;;15.30;99.90;;;;;;5004813;28;20390;-72
2022/09/16 05:36:43;;;;;;;1.48;0.75;;;15.30;99.90;;;;;;4991724;28;20035;-72
2022/09/16 05:39:10;;;;;;;6.30;1.05;;;15.30;99.90;;;;;;5024877;28;20076;-72
2022/09/16 05:41:37;;;;;;;5.10;1.30;;;15.20;99.90;;;;;;5025316;28;20030;-73
2022/09/16 05:44:05;;;;;;;0.85;0.77;;;15.30;99.90;;;;;;5009643;28;20057;-73
2022/09/16 05:46:31;;;;;;;12.10;0.98;;;15.30;99.90;;;;;;5025068;28;20026;-74
2022/09/16 05:48:57;;;;;;;2.33;0.95;;;15.20;99.90;;;;;;5009450;28;20108;-74
2022/09/16 05:51:24;;;;;;;1.42;1.30;;;15.30;99.90;;;;;;5010148;28;20486;-74
2022/09/16 05:53:52;;;;;;;0.52;0.40;;;15.30;99.90;;;;;;5009583;28;20040;-74
2022/09/16 05:56:27;;;;;;;3.88;1.05;;;15.30;99.90;;;;;;5009934;28;20022;-74
2022/09/16 05:58:56;;;;;;;2.83;0.88;;;15.30;99.90;;;;;;5008200;28;20034;-74
2022/09/16 06:01:42;;;;;;;0.52;0.47;;;15.30;99.90;;;;;;5005619;28;20038;-74
2022/09/16 06:04:11;;;;;;;0.88;0.55;;;15.40;99.90;;;;;;4975075;28;20019;-73
2022/09/16 06:06:45;;;;;;;0.57;0.47;;;15.40;99.90;;;;;;4989278;28;20081;-74
2022/09/16 06:09:17;;;;;;;0.52;0.52;;;15.50;99.90;;;;;;5009691;28;20509;-74
2022/09/16 06:11:47;;;;;;;2.65;1.08;;;15.60;99.90;;;;;;5021695;28;20395;-74
2022/09/16 06:14:14;;;;;;;1.00;0.57;;;15.70;99.90;;;;;;4993775;28;20457;-74
2022/09/16 06:16:41;;;;;;;1.63;1.15;;;15.80;99.90;;;;;;4993778;28;20106;-75
2022/09/16 06:19:12;;;;;;;4.43;1.42;;;15.80;99.90;;;;;;4991786;28;20069;-73
2022/09/16 06:21:39;;;;;;;3.67;1.60;;;15.90;99.90;;;;;;4992838;28;20052;-74
2022/09/16 06:24:07;;;;;;;1.05;0.73;;;15.90;99.90;;;;;;4992793;28;20050;-75
2022/09/16 06:26:35;;;;;;;0.85;0.82;;;15.90;99.90;;;;;;5008631;28;20398;-75
2022/09/16 06:29:00;;;;;;;0.60;0.40;;;16.00;99.90;;;;;;4992901;28;20035;-75
2022/09/16 06:31:27;;;;;;;3.72;1.35;;;16.00;99.90;;;;;;4993716;28;20046;-74
2022/09/16 06:33:54;;;;;;;2.42;1.05;;;16.00;99.90;;;;;;5008344;28;20034;-75
2022/09/16 06:36:24;;;;;;;1.48;0.98;;;15.90;99.90;;;;;;5008180;28;20038;-75
2022/09/16 06:38:50;;;;;;;3.28;1.23;;;16.10;99.90;;;;;;5007861;28;20030;-75
2022/09/16 06:41:18;;;;;;;2.90;1.48;;;16.10;99.90;;;;;;4993644;28;20026;-75
2022/09/16 06:43:44;;;;;;;3.28;1.58;;;16.10;99.90;;;;;;4993454;28;20031;-74
2022/09/16 06:46:17;;;;;;;2.78;1.45;;;16.10;99.90;;;;;;4992435;28;20376;-75
2022/09/16 06:48:46;;;;;;;3.70;1.17;;;16.20;99.90;;;;;;4992206;28;20034;-75
2022/09/16 06:51:15;;;;;;;3.88;1.67;;;16.20;99.90;;;;;;4992146;28;20503;-75
2022/09/16 06:53:42;;;;;;;1.48;0.73;;;16.00;99.90;;;;;;4992813;28;20077;-75
2022/09/16 06:56:12;;;;;;;3.50;0.82;;;15.90;99.90;;;;;;4992416;28;20056;-75
2022/09/16 06:58:41;;;;;;;2.35;0.85;;;16.00;99.90;;;;;;4993199;28;20038;-75
2022/09/16 07:01:12;;;;;;;1.25;1.00;;;16.10;99.90;;;;;;4991875;28;20034;-75
2022/09/16 07:03:41;;;;;;;1.58;0.80;;;16.00;99.90;;;;;;4991557;28;20479;-75
2022/09/16 07:06:08;;;;;;;2.70;1.17;;;15.90;99.90;;;;;;4993257;28;20038;-75
2022/09/16 07:08:36;;;;;;;3.13;1.23;;;16.00;99.90;;;;;;5007876;28;20033;-74
2022/09/16 07:11:09;;;;;;;2.13;0.80;;;15.90;99.90;;;;;;5012369;28;20386;-75
2022/09/16 07:13:35;;;;;;;2.15;1.00;;;15.90;99.90;;;;;;5012293;28;20033;-75
2022/09/16 07:16:05;;;;;;;1.63;0.90;;;15.90;99.90;;;;;;5012318;28;20060;-75
2022/09/16 07:18:32;;;;;;;1.63;0.80;;;15.80;99.90;;;;;;5027489;28;20033;-75
2022/09/16 07:21:09;;;;;;;2.72;0.90;;;15.90;99.90;;;;;;5012281;28;20030;-75
2022/09/16 07:23:37;;;;;;;4.80;0.98;;;15.90;99.90;;;;;;5011413;28;20049;-75
2022/09/16 07:26:17;;;;;;;4.15;1.42;;;15.90;99.90;;;;;;5012140;28;20053;-75
2022/09/16 07:28:45;;;;;;;0.97;0.50;;;15.90;99.90;;;;;;5012286;28;20030;-75
2022/09/16 07:31:25;;;;;;;1.95;1.02;;;15.90;99.90;;;;;;5027330;28;20309;-75
2022/09/16 07:33:53;;;;;;;3.20;0.75;;;15.90;99.90;;;;;;5026759;28;20038;-75
2022/09/16 07:36:26;;;;;;;0.70;0.40;;;16.00;99.90;;;;;;5011890;28;20430;-75
2022/09/16 07:38:57;;;;;;;3.60;1.40;;;16.00;99.90;;;;;;5026398;28;20030;-75
2022/09/16 07:41:28;;;;;;;2.15;1.20;;;16.00;99.90;;;;;;5027206;28;20484;-74
2022/09/16 07:43:57;;;;;;;2.15;1.00;;;16.10;99.90;;;;;;5026614;28;20037;-75
2022/09/16 07:46:28;;;;;;;8.52;0.90;;;16.00;99.90;;;;;;5011978;28;20026;-75
2022/09/16 07:48:54;;;;;;;2.00;1.15;;;16.00;99.90;;;;;;5011528;28;20752;-74
2022/09/16 07:51:24;;;;;;;1.23;0.52;;;16.00;99.90;;;;;;5011631;28;20050;-74
2022/09/16 07:53:55;;;;;;;0.90;0.57;;;16.00;99.90;;;;;;5011321;28;20025;-74
2022/09/16 07:56:24;;;;;;;4.18;1.63;;;16.00;99.90;;;;;;5011960;28;20112;-74
2022/09/16 07:58:51;;;;;;;1.38;0.70;;;16.10;99.90;;;;;;5026003;28;20034;-74
2022/09/16 08:01:17;;;;;;;2.22;0.40;;;16.10;99.90;;;;;;5026640;28;20478;-74
2022/09/16 08:03:45;;;;;;;4.47;0.75;;;16.10;99.90;;;;;;5008390;28;20026;-74
2022/09/16 08:06:22;;;;;;;9.65;0.98;;;16.20;99.90;;;;;;4990874;28;20061;-73
2022/09/16 08:08:51;;;;;;;4.68;0.77;;;16.20;99.90;;;;;;5024122;28;20026;-69
2022/09/16 08:11:17;;;;;;;11.10;1.10;;;16.20;99.90;;;;;;5024772;28;20037;-69
2022/09/16 08:13:44;;;;;;;2.00;0.70;;;16.20;99.90;;;;;;4993332;28;20097;-69
2022/09/16 08:16:17;;;;;;;2.63;1.00;;;16.10;99.90;;;;;;4990288;28;20026;-69
2022/09/16 08:18:44;;;;;;;5.93;1.05;;;16.20;99.90;;;;;;4990137;28;20041;-69
2022/09/16 08:21:18;;;;;;;3.55;1.30;;;16.20;99.90;;;;;;4990312;28;20034;-69
2022/09/16 08:23:44;;;;;;;2.15;0.70;;;16.20;99.90;;;;;;4989522;28;20161;-69
2022/09/16 08:26:12;;;;;;;3.97;1.02;;;16.10;99.90;;;;;;4990304;28;20053;-69
2022/09/16 08:28:40;;;;;;;2.30;0.73;;;16.10;99.90;;;;;;4990266;28;20041;-69
2022/09/16 08:31:07;;;;;;;0.75;0.43;;;16.10;99.90;;;;;;4990388;28;20046;-69
2022/09/16 08:33:33;;;;;;;0.73;0.57;;;16.10;99.90;;;;;;4989784;28;20037;-69
2022/09/16 08:36:15;;;;;;;1.38;0.65;;;16.20;99.90;;;;;;4990153;28;20030;-69
2022/09/16 08:38:43;;;;;;;5.00;0.82;;;16.20;99.90;;;;;;5006759;28;20042;-69
2022/09/16 08:41:54;;;;;;;5.82;1.23;;;16.30;99.90;;;;;;5010959;28;20026;-69
2022/09/16 08:44:49;;;;;;;;;;;16.10;99.90;;;;;;5011010;28;20105;-69
2022/09/16 08:47:44;;;;;;;2.75;0.85;;;16.10;99.90;;;;;;5024633;28;19913;-69
2022/09/16 08:50:39;;;;;;;1.00;0.45;;;16.20;99.90;;;;;;5024509;28;20046;-68
2022/09/16 08:53:34;;;;;;;1.63;0.80;;;16.40;99.90;;;;;;5007800;28;20085;-69
2022/09/16 08:56:05;;;;;;;1.83;0.57;;;16.40;99.90;;;;;;5025399;28;20045;-69
2022/09/16 08:58:42;;;;;;;0.95;0.40;;;16.40;99.90;;;;;;5010453;28;20107;-69
2022/09/16 09:01:46;;;;;;;1.00;0.47;;;16.50;99.90;;;;;;5010338;28;20095;-69
2022/09/16 09:04:13;;;;;;;1.25;0.45;;;16.70;99.90;;;;;;5010508;28;20030;-69
2022/09/16 09:07:08;;;;;;;2.92;0.57;;;16.90;99.90;;;;;;5025601;28;20117;-70
2022/09/16 09:10:01;;;;;;;3.92;0.85;;;16.80;99.90;;;;;;5024019;28;20084;-69
2022/09/16 09:12:42;;;;;;;1.02;0.52;;;16.80;99.90;;;;;;5010389;28;20072;-69
2022/09/16 09:15:17;;;;;;;9.47;0.80;;;16.80;99.90;;;;;;5025549;28;20061;-69
2022/09/16 09:17:53;;;;;;;4.18;0.85;;;16.90;99.90;;;;;;5010057;28;20347;-69
2022/09/16 09:20:32;;;;;;;0.75;0.57;;;16.90;99.90;;;;;;5010202;28;20117;-69
2022/09/16 09:23:41;;;;;;;5.03;0.75;;;16.90;99.90;;;;;;5025499;28;20091;-69
2022/09/16 09:26:39;;;;;;;1.05;0.57;;;17.00;99.90;;;;;;5009273;28;20033;-69
2022/09/16 09:29:35;;;;;;;3.28;0.57;;;17.10;99.90;;;;;;5010073;28;20033;-70
2022/09/16 09:32:32;;;;;;;2.45;0.90;;;17.10;99.90;;;;;;5023866;28;20029;-69
2022/09/16 09:35:39;;;;;;;0.50;0.40;;;17.00;99.90;;;;;;5023142;28;20045;-69
2022/09/16 09:38:35;;;;;;;6.20;0.70;;;17.00;99.90;;;;;;4979183;28;20050;-68
2022/09/16 09:41:19;;;;;;;1.05;0.52;;;17.10;99.90;;;;;;5009789;28;20038;-67
2022/09/16 09:44:26;;;;;;;1.85;0.50;;;17.10;99.90;;;;;;5010010;28;20040;-69
2022/09/16 09:46:59;;;;;;;0.45;0.32;;;17.30;99.90;;;;;;4988222;28;20045;-69
2022/09/16 09:49:43;;;;;;;3.20;0.70;;;17.50;99.40;;;;;;5028368;28;20030;-67
2022/09/16 09:52:56;;;;;;;1.60;0.68;;;17.50;99.50;;;;;;5027993;28;20368;-67
2022/09/16 09:55:25;;;;;;;0.73;0.17;;;17.50;99.90;;;;;;4975205;28;20038;-68
2022/09/16 09:58:27;;;;;;;0.95;0.30;;;17.80;98.70;;;;;;4993888;28;20101;-67
2022/09/16 10:00:56;;;;;;;0.65;0.25;;;17.80;99.00;;;;;;5008754;28;20502;-68
2022/09/16 10:03:23;;;;;;;3.55;0.50;;;17.80;98.60;;;;;;4993759;28;20038;-68
2022/09/16 10:05:49;;;;;;;2.22;0.65;;;17.80;98.20;;;;;;5011410;28;20053;-68
2022/09/16 10:08:27;;;;;;;0.82;0.40;;;17.80;98.20;;;;;;5007544;28;20482;-67
2022/09/16 10:11:00;;;;;;;2.72;0.35;;;17.80;98.40;;;;;;5013515;28;20062;-68
2022/09/16 10:13:29;;;;;;;0.50;0.22;;;17.50;96.60;;;;;;5028324;28;20026;-67
2022/09/16 10:16:14;;;;;;;0.28;0.25;;;17.30;98.20;;;;;;5028522;28;20034;-69
2022/09/16 10:18:41;;;;;;;2.85;0.60;;;17.30;98.00;;;;;;5011975;28;20045;-67
2022/09/16 10:21:15;;;;;;;4.85;0.60;;;17.50;97.50;;;;;;5028392;28;20133;-68
2022/09/16 10:23:51;;;;;;;4.55;0.52;;;17.50;98.40;;;;;;5027919;28;20109;-67
2022/09/16 10:26:27;;;;;;;2.25;0.40;;;17.70;97.60;;;;;;5027544;28;20025;-70
2022/09/16 10:29:14;;;;;;;8.55;0.55;;;17.80;97.00;;;;;;5013153;28;20045;-69
2022/09/16 10:31:41;;;;;;;1.55;0.57;;;17.80;97.20;;;;;;5028225;28;20454;-69
2022/09/16 10:34:31;;;;;;;0.55;0.30;;;18.00;97.00;;;;;;5013193;28;20026;-69
2022/09/16 10:37:13;;;;;;;0.30;0.20;;;18.40;95.80;;;;;;5012977;28;20114;-69
2022/09/16 10:39:43;;;;;;;1.88;0.40;;;18.60;95.50;;;;;;5012937;28;20030;-69
2022/09/16 10:42:27;;;;;;;0.43;0.15;;;18.50;95.10;;;;;;5027939;28;20621;-69
2022/09/16 10:45:23;;;;;;;4.28;0.43;;;18.80;95.10;;;;;;5028210;28;20038;-69
2022/09/16 10:47:53;;;;;;;0.88;0.35;;;18.80;95.40;;;;;;5026817;28;20029;-70
2022/09/16 10:50:19;;;;;;;2.53;0.63;;;19.00;95.80;;;;;;5011064;28;20025;-70
2022/09/16 10:52:47;;;;;;;0.73;0.38;;;19.20;95.50;;;;;;5025953;28;20038;-70
2022/09/16 10:55:25;;;;;;;3.42;0.82;;;19.30;95.30;;;;;;5026302;28;20048;-69
2022/09/16 10:57:53;;;;;;;0.30;0.20;;;19.00;94.90;;;;;;5010933;28;20041;-69
2022/09/16 11:00:24;;;;;;;0.43;0.32;;;18.80;94.10;;;;;;5024378;28;20022;-70
2022/09/16 11:03:45;;;;;;;0.93;0.43;;;18.40;95.20;;;;;;5011050;28;20037;-69
2022/09/16 11:06:31;;;;;;;0.32;0.20;;;18.20;96.00;;;;;;5012997;28;20041;-70
2022/09/16 11:09:23;;;;;;;2.58;0.80;;;18.20;94.80;;;;;;5027165;28;20478;-69
2022/09/16 11:12:31;;;;;;;0.32;0.20;;;18.30;95.00;;;;;;5027168;28;20026;-69
2022/09/16 11:15:07;;;;;;;0.30;0.20;;;18.50;94.90;;;;;;5012849;28;20042;-69
2022/09/16 11:18:24;;;;;;;0.52;0.30;;;18.60;94.60;;;;;;5012459;28;20038;-69
2022/09/16 11:21:08;;;;;;;3.42;0.35;;;18.70;95.10;;;;;;5008066;28;20449;-70
2022/09/16 11:24:10;;;;;;;0.65;0.20;;;19.00;94.70;;;;;;5011932;28;20040;-69
2022/09/16 11:27:31;;;;;;;0.90;0.52;;;18.70;95.00;;;;;;5012566;28;20041;-69
2022/09/16 11:30:09;;;;;;;0.50;0.20;;;18.50;95.60;;;;;;5011926;28;20072;-69
2022/09/16 11:33:04;;;;;;;0.20;0.10;;;18.30;94.60;;;;;;5027134;28;20441;-68
2022/09/16 11:36:02;;;;;;;0.30;0.20;;;18.20;94.00;;;;;;5012116;28;20040;-69
2022/09/16 11:38:49;;;;;;;1.08;0.52;;;18.50;94.90;;;;;;5011676;28;20034;-69
2022/09/16 11:41:41;;;;;;;1.27;0.40;;;18.50;94.50;;;;;;5012108;28;20030;-70
2022/09/16 11:44:35;;;;;;;2.10;0.50;;;18.70;94.10;;;;;;5011929;28;20064;-71
2022/09/16 11:47:35;;;;;;;0.28;0.20;;;18.80;94.80;;;;;;5026483;28;20390;-70
2022/09/16 11:50:16;;;;;;;2.00;0.50;;;19.20;93.00;;;;;;5024526;28;20036;-71
2022/09/16 11:53:05;;;;;;;;;;;19.30;93.40;;;;;;5012033;28;20061;-71
2022/09/16 11:56:20;;;;;;;2.33;0.50;;;19.10;93.20;;;;;;5027382;28;19916;-71
2022/09/16 11:58:56;;;;;;;3.05;0.73;;;19.30;92.50;;;;;;5011199;28;20038;-71
2022/09/16 12:01:33;;;;;;;2.45;0.40;;;18.90;93.60;;;;;;5026275;28;20040;-71
2022/09/16 12:04:14;;;;;;;2.90;0.40;;;18.90;94.10;;;;;;5007965;28;20034;-71
2022/09/16 12:07:06;;;;;;;1.67;0.57;;;19.20;93.60;;;;;;5007317;28;20026;-71
2022/09/16 12:09:51;;;;;;;7.00;0.43;;;19.20;93.70;;;;;;5011073;28;20060;-71
2022/09/16 12:12:30;;;;;;;1.23;0.20;;;19.50;92.60;;;;;;5025835;28;20026;-71
2022/09/16 12:15:12;;;;;;;4.30;0.88;;;19.30;92.60;;;;;;5008357;28;20490;-72
2022/09/16 12:17:58;;;;;;;0.98;0.35;;;19.20;93.80;;;;;;4990524;28;20482;-71
2022/09/16 12:20:30;;;;;;;2.40;0.80;;;19.00;94.00;;;;;;4990334;28;20035;-71
2022/09/16 12:23:21;;;;;;;1.83;0.32;;;18.30;94.60;;;;;;4990094;28;20026;-71
2022/09/16 12:26:08;;;;;;;5.88;0.70;;;18.40;95.40;;;;;;4991854;28;20035;-71
2022/09/16 12:29:04;;;;;;;2.90;0.63;;;18.50;94.70;;;;;;4990552;28;20490;-71
2022/09/16 12:31:48;;;;;;;4.47;0.57;;;18.70;96.00;;;;;;4990662;28;20048;-71
2022/09/16 12:34:25;;;;;;;2.97;0.50;;;18.70;96.10;;;;;;4991272;28;20030;-71
2022/09/16 12:37:29;;;;;;;0.57;0.30;;;19.10;94.10;;;;;;4991584;28;20030;-71
2022/09/16 12:39:54;;;;;;;1.80;0.50;;;19.70;94.00;;;;;;4990741;28;20104;-72
2022/09/16 12:43:04;;;;;;;0.90;0.30;;;20.10;94.20;;;;;;4989737;28;20057;-71
2022/09/16 12:46:01;;;;;;;0.65;0.38;;;20.00;93.10;;;;;;4990456;28;20117;-71
2022/09/16 12:48:33;;;;;;;0.40;0.40;;;19.90;92.70;;;;;;4990289;28;20042;-71
2022/09/16 12:51:44;;;;;;;0.70;0.40;;;19.70;94.00;;;;;;4990937;28;20038;-71
2022/09/16 12:54:48;;;;;;;5.22;0.55;;;19.50;93.20;;;;;;4989951;28;20052;-71
2022/09/16 12:57:35;;;;;;;2.97;0.52;;;19.10;93.40;;;;;;4978868;28;20104;-71
2022/09/16 13:00:29;;;;;;;0.73;0.28;;;19.20;96.20;;;;;;4989732;28;20088;-71
2022/09/16 13:03:05;;;;;;;3.42;0.20;;;19.10;94.50;;;;;;4972255;28;20131;-71
2022/09/16 13:05:37;;;;;;;2.83;0.30;;;18.90;95.10;;;;;;4990737;28;20034;-71
2022/09/16 13:08:17;;;;;;;0.32;0.28;;;19.10;94.00;;;;;;5001733;28;20454;-71
2022/09/16 13:10:43;;;;;;;3.00;0.60;;;19.50;94.20;;;;;;5010535;28;20022;-71
2022/09/16 13:13:23;;;;;;;6.72;0.82;;;19.70;93.60;;;;;;5025612;28;20115;-71
2022/09/16 13:15:58;;;;;;;0.60;0.30;;;19.90;93.20;;;;;;5025241;28;20084;-71
2022/09/16 13:18:39;;;;;;;0.95;0.45;;;20.20;92.90;;;;;;5025518;28;20109;-71
2022/09/16 13:21:15;;;;;;;3.05;0.52;;;20.30;92.50;;;;;;5025215;28;20553;-71
2022/09/16 13:23:47;;;;;;;1.40;0.73;;;20.20;92.90;;;;;;5024368;28;20022;-71
2022/09/16 13:26:13;;;;;;;1.08;0.40;;;20.40;93.40;;;;;;5010200;28;20032;-71
2022/09/16 13:28:42;;;;;;;0.57;0.30;;;20.70;92.60;;;;;;5025648;28;20056;-71
2022/09/16 13:31:28;;;;;;;0.82;0.40;;;20.30;92.90;;;;;;5025448;28;20034;-71
2022/09/16 13:33:57;;;;;;;0.85;0.47;;;19.80;93.60;;;;;;5010225;28;20048;-71
2022/09/16 13:36:22;;;;;;;0.30;0.30;;;19.60;94.40;;;;;;5010480;28;20044;-70
2022/09/16 13:38:54;;;;;;;0.57;0.43;;;19.40;95.50;;;;;;5009837;28;20022;-70
2022/09/16 13:41:37;;;;;;;2.40;0.52;;;18.60;97.10;;;;;;5010448;28;20029;-70